sensor_id;sensor_type;location;lat;lon;timestamp;pressure;altitude;pressure_sealevel;temperature;humidity
33781;BME280;20097;50.832;19.100;2023-04-21T00:02:17;98542.59;;;6.65;100.00
33781;BME280;20097;50.832;19.100;2023-04-21T00:07:21;98545.91;;;6.48;100.00
33781;BME280;20097;50.832;19.100;2023-04-21T00:12:26;98543.75;;;6.43;100.00
33781;BME280;20097;50.832;19.100;2023-04-21T00:17:32;98542.38;;;6.39;100.00
33781;BME280;20097;50.832;19.100;2023-04-21T00:22:36;98541.47;;;6.21;100.00
33781;BME280;20097;50.832;19.100;2023-04-21T00:27:40;98533.59;;;6.13;100.00
33781;BME280;20097;50.832;19.100;2023-04-21T00:32:46;98537.44;;;6.09;100.00
33781;BME280;20097;50.832;19.100;2023-04-21T00:37:50;98536.34;;;6.02;100.00
33781;BME280;20097;50.832;19.100;2023-04-21T00:42:54;98529.56;;;5.92;100.00
33781;BME280;20097;50.832;19.100;2023-04-21T00:48:01;98537.19;;;5.93;100.00
33781;BME280;20097;50.832;19.100;2023-04-21T00:53:06;98527.06;;;5.81;100.00
33781;BME280;20097;50.832;19.100;2023-04-21T00:58:12;98526.00;;;5.74;100.00
33781;BME280;20097;50.832;19.100;2023-04-21T01:03:17;98523.00;;;5.59;100.00
33781;BME280;20097;50.832;19.100;2023-04-21T01:08:21;98526.28;;;5.51;100.00
33781;BME280;20097;50.832;19.100;2023-04-21T01:13:25;98522.47;;;5.46;100.00
33781;BME280;20097;50.832;19.100;2023-04-21T01:18:32;98523.00;;;5.40;100.00
33781;BME280;20097;50.832;19.100;2023-04-21T01:23:38;98511.56;;;5.33;100.00
33781;BME280;20097;50.832;19.100;2023-04-21T01:28:42;98517.69;;;5.22;100.00
33781;BME280;20097;50.832;19.100;2023-04-21T01:33:46;98515.78;;;5.15;100.00
33781;BME280;20097;50.832;19.100;2023-04-21T01:38:52;98518.63;;;5.12;100.00
33781;BME280;20097;50.832;19.100;2023-04-21T01:43:57;98516.56;;;5.06;100.00
33781;BME280;20097;50.832;19.100;2023-04-21T01:49:01;98528.00;;;5.03;100.00
33781;BME280;20097;50.832;19.100;2023-04-21T01:54:09;98519.41;;;5.03;100.00
33781;BME280;20097;50.832;19.100;2023-04-21T01:59:14;98528.41;;;4.99;100.00
33781;BME280;20097;50.832;19.100;2023-04-21T02:04:20;98525.66;;;4.91;100.00
33781;BME280;20097;50.832;19.100;2023-04-21T02:09:26;98524.44;;;4.95;100.00
33781;BME280;20097;50.832;19.100;2023-04-21T02:14:30;98534.66;;;4.96;100.00
33781;BME280;20097;50.832;19.100;2023-04-21T02:19:34;98523.75;;;4.93;100.00
33781;BME280;20097;50.832;19.100;2023-04-21T02:24:40;98528.91;;;4.93;100.00
33781;BME280;20097;50.832;19.100;2023-04-21T02:29:44;98531.22;;;4.86;100.00
33781;BME280;20097;50.832;19.100;2023-04-21T02:34:48;98517.47;;;4.76;100.00
33781;BME280;20097;50.832;19.100;2023-04-21T02:39:54;98522.31;;;4.60;100.00
33781;BME280;20097;50.832;19.100;2023-04-21T02:44:59;98518.34;;;4.56;100.00
33781;BME280;20097;50.832;19.100;2023-04-21T02:50:04;98512.59;;;4.53;100.00
33781;BME280;20097;50.832;19.100;2023-04-21T02:55:09;98511.91;;;4.51;100.00
33781;BME280;20097;50.832;19.100;2023-04-21T03:00:14;98525.97;;;4.58;100.00
33781;BME280;20097;50.832;19.100;2023-04-21T03:05:18;98510.75;;;4.64;100.00
33781;BME280;20097;50.832;19.100;2023-04-21T03:10:24;98515.91;;;4.64;100.00
33781;BME280;20097;50.832;19.100;2023-04-21T03:15:30;98516.06;;;4.63;100.00
33781;BME280;20097;50.832;19.100;2023-04-21T03:20:36;98517.09;;;4.51;100.00
33781;BME280;20097;50.832;19.100;2023-04-21T03:25:42;98522.91;;;4.43;100.00
33781;BME280;20097;50.832;19.100;2023-04-21T03:30:46;98524.00;;;4.41;100.00
33781;BME280;20097;50.832;19.100;2023-04-21T03:35:50;98518.22;;;4.28;100.00
33781;BME280;20097;50.832;19.100;2023-04-21T03:40:55;98525.09;;;4.17;100.00
33781;BME280;20097;50.832;19.100;2023-04-21T03:45:59;98525.97;;;4.28;100.00
33781;BME280;20097;50.832;19.100;2023-04-21T03:51:04;98531.84;;;4.09;100.00
33781;BME280;20097;50.832;19.100;2023-04-21T03:56:10;98529.75;;;4.23;100.00
33781;BME280;20097;50.832;19.100;2023-04-21T04:01:14;98531.34;;;4.15;100.00
33781;BME280;20097;50.832;19.100;2023-04-21T04:06:18;98542.38;;;4.17;100.00
33781;BME280;20097;50.832;19.100;2023-04-21T04:11:24;98549.41;;;4.15;100.00
33781;BME280;20097;50.832;19.100;2023-04-21T04:16:28;98551.25;;;4.24;100.00
33781;BME280;20097;50.832;19.100;2023-04-21T04:21:32;98552.47;;;4.30;100.00
33781;BME280;20097;50.832;19.100;2023-04-21T04:26:38;98551.06;;;4.46;100.00
33781;BME280;20097;50.832;19.100;2023-04-21T04:31:42;98559.00;;;4.54;100.00
33781;BME280;20097;50.832;19.100;2023-04-21T04:36:46;98568.06;;;4.69;100.00
33781;BME280;20097;50.832;19.100;2023-04-21T04:41:53;98561.44;;;4.86;100.00
33781;BME280;20097;50.832;19.100;2023-04-21T04:46:57;98554.69;;;5.04;100.00
33781;BME280;20097;50.832;19.100;2023-04-21T04:52:02;98563.56;;;5.20;100.00
33781;BME280;20097;50.832;19.100;2023-04-21T04:57:08;98561.44;;;5.35;100.00
33781;BME280;20097;50.832;19.100;2023-04-21T05:02:12;98564.59;;;5.48;100.00
33781;BME280;20097;50.832;19.100;2023-04-21T05:07:16;98562.81;;;5.77;100.00
33781;BME280;20097;50.832;19.100;2023-04-21T05:12:22;98559.66;;;6.02;100.00
33781;BME280;20097;50.832;19.100;2023-04-21T05:17:26;98560.84;;;6.27;100.00
33781;BME280;20097;50.832;19.100;2023-04-21T05:22:35;98557.22;;;6.56;100.00
33781;BME280;20097;50.832;19.100;2023-04-21T05:27:41;98561.47;;;6.84;100.00
33781;BME280;20097;50.832;19.100;2023-04-21T05:32:46;98557.25;;;7.11;100.00
33781;BME280;20097;50.832;19.100;2023-04-21T05:37:50;98556.09;;;7.40;100.00
33781;BME280;20097;50.832;19.100;2023-04-21T05:42:55;98562.31;;;7.82;100.00
33781;BME280;20097;50.832;19.100;2023-04-21T05:47:59;98561.63;;;8.15;100.00
33781;BME280;20097;50.832;19.100;2023-04-21T05:53:03;98561.34;;;8.44;100.00
33781;BME280;20097;50.832;19.100;2023-04-21T05:58:09;98569.16;;;9.11;100.00
33781;BME280;20097;50.832;19.100;2023-04-21T06:03:13;98571.19;;;9.33;100.00
33781;BME280;20097;50.832;19.100;2023-04-21T06:08:17;98560.97;;;9.56;100.00
33781;BME280;20097;50.832;19.100;2023-04-21T06:13:22;98563.44;;;9.98;100.00
33781;BME280;20097;50.832;19.100;2023-04-21T06:18:28;98567.69;;;10.39;98.29
33781;BME280;20097;50.832;19.100;2023-04-21T06:23:32;98563.03;;;10.73;98.92
33781;BME280;20097;50.832;19.100;2023-04-21T06:28:38;98560.00;;;11.00;94.97
33781;BME280;20097;50.832;19.100;2023-04-21T06:33:42;98556.59;;;11.30;92.26
33781;BME280;20097;50.832;19.100;2023-04-21T06:38:46;98559.97;;;11.61;91.28
33781;BME280;20097;50.832;19.100;2023-04-21T06:43:52;98558.56;;;11.81;92.86
33781;BME280;20097;50.832;19.100;2023-04-21T06:48:56;98560.03;;;12.06;92.06
33781;BME280;20097;50.832;19.100;2023-04-21T06:54:01;98568.19;;;12.26;91.05
33781;BME280;20097;50.832;19.100;2023-04-21T06:59:06;98563.38;;;12.52;85.23
33781;BME280;20097;50.832;19.100;2023-04-21T07:04:11;98565.91;;;12.75;85.49
33781;BME280;20097;50.832;19.100;2023-04-21T07:09:15;98559.47;;;12.92;77.79
33781;BME280;20097;50.832;19.100;2023-04-21T07:14:22;98555.59;;;13.17;79.03
33781;BME280;20097;50.832;19.100;2023-04-21T07:19:26;98564.50;;;13.37;72.60
33781;BME280;20097;50.832;19.100;2023-04-21T07:24:30;98562.53;;;13.60;72.08
33781;BME280;20097;50.832;19.100;2023-04-21T07:29:37;98569.44;;;13.82;70.81
33781;BME280;20097;50.832;19.100;2023-04-21T07:34:42;98563.31;;;13.96;71.49
33781;BME280;20097;50.832;19.100;2023-04-21T07:39:49;98560.56;;;14.25;71.04
33781;BME280;20097;50.832;19.100;2023-04-21T07:44:54;98566.47;;;14.34;66.88
33781;BME280;20097;50.832;19.100;2023-04-21T07:49:59;98566.78;;;14.45;65.68
33781;BME280;20097;50.832;19.100;2023-04-21T07:55:04;98561.81;;;14.57;65.52
33781;BME280;20097;50.832;19.100;2023-04-21T08:00:11;98563.03;;;14.95;65.57
33781;BME280;20097;50.832;19.100;2023-04-21T08:05:15;98573.84;;;15.13;59.48
33781;BME280;20097;50.832;19.100;2023-04-21T08:10:20;98578.00;;;15.35;60.48
33781;BME280;20097;50.832;19.100;2023-04-21T08:15:26;98574.53;;;15.35;60.25
33781;BME280;20097;50.832;19.100;2023-04-21T08:20:30;98559.81;;;15.47;61.59
33781;BME280;20097;50.832;19.100;2023-04-21T08:25:34;98567.38;;;15.63;60.13
33781;BME280;20097;50.832;19.100;2023-04-21T08:30:39;98564.38;;;15.79;58.90
33781;BME280;20097;50.832;19.100;2023-04-21T08:35:44;98571.06;;;15.88;56.64
33781;BME280;20097;50.832;19.100;2023-04-21T08:41:04;98558.53;;;15.90;58.92
33781;BME280;20097;50.832;19.100;2023-04-21T08:46:11;98569.69;;;15.98;55.66
33781;BME280;20097;50.832;19.100;2023-04-21T08:51:20;98566.25;;;16.11;57.19
33781;BME280;20097;50.832;19.100;2023-04-21T08:56:25;98568.88;;;16.30;54.14
33781;BME280;20097;50.832;19.100;2023-04-21T09:01:30;98567.06;;;16.44;54.59
33781;BME280;20097;50.832;19.100;2023-04-21T09:06:39;98566.84;;;16.65;53.61
33781;BME280;20097;50.832;19.100;2023-04-21T09:11:53;98559.72;;;16.72;53.78
33781;BME280;20097;50.832;19.100;2023-04-21T09:17:02;98572.34;;;16.57;47.15
33781;BME280;20097;50.832;19.100;2023-04-21T09:22:06;98568.25;;;16.68;49.10
33781;BME280;20097;50.832;19.100;2023-04-21T09:27:10;98557.50;;;16.69;50.12
33781;BME280;20097;50.832;19.100;2023-04-21T09:32:18;98561.97;;;16.69;48.14
33781;BME280;20097;50.832;19.100;2023-04-21T09:37:23;98567.22;;;16.36;48.67
33781;BME280;20097;50.832;19.100;2023-04-21T09:42:28;98566.44;;;16.29;49.20
33781;BME280;20097;50.832;19.100;2023-04-21T09:47:34;98557.72;;;16.22;50.17
33781;BME280;20097;50.832;19.100;2023-04-21T09:52:41;98560.56;;;16.07;49.28
33781;BME280;20097;50.832;19.100;2023-04-21T09:57:47;98557.72;;;16.15;48.80
33781;BME280;20097;50.832;19.100;2023-04-21T10:02:53;98555.91;;;16.03;47.50
33781;BME280;20097;50.832;19.100;2023-04-21T10:07:57;98543.72;;;16.34;48.92
33781;BME280;20097;50.832;19.100;2023-04-21T10:13:02;98546.09;;;16.88;47.13
33781;BME280;20097;50.832;19.100;2023-04-21T10:18:17;98554.41;;;16.98;46.07
33781;BME280;20097;50.832;19.100;2023-04-21T10:23:29;98547.00;;;16.50;45.33
33781;BME280;20097;50.832;19.100;2023-04-21T10:28:38;98549.41;;;16.64;44.80
33781;BME280;20097;50.832;19.100;2023-04-21T10:34:17;98555.66;;;16.83;42.16
33781;BME280;20097;50.832;19.100;2023-04-21T10:39:26;98548.06;;;17.12;42.62
33781;BME280;20097;50.832;19.100;2023-04-21T10:44:30;98546.28;;;17.50;42.52
33781;BME280;20097;50.832;19.100;2023-04-21T10:49:39;98546.25;;;17.06;42.56
33781;BME280;20097;50.832;19.100;2023-04-21T10:55:03;98529.97;;;17.16;42.37
33781;BME280;20097;50.832;19.100;2023-04-21T11:00:09;98534.44;;;17.91;43.42
33781;BME280;20097;50.832;19.100;2023-04-21T11:05:14;98527.75;;;17.13;41.98
33781;BME280;20097;50.832;19.100;2023-04-21T11:10:19;98532.91;;;17.45;41.97
33781;BME280;20097;50.832;19.100;2023-04-21T11:15:23;98523.22;;;18.02;41.32
33781;BME280;20097;50.832;19.100;2023-04-21T11:20:29;98522.09;;;18.16;39.43
33781;BME280;20097;50.832;19.100;2023-04-21T11:25:33;98509.03;;;18.45;41.45
33781;BME280;20097;50.832;19.100;2023-04-21T11:30:38;98525.72;;;18.82;40.96
33781;BME280;20097;50.832;19.100;2023-04-21T11:35:43;98525.44;;;18.29;39.77
33781;BME280;20097;50.832;19.100;2023-04-21T11:40:48;98525.66;;;18.70;40.45
33781;BME280;20097;50.832;19.100;2023-04-21T11:45:52;98530.44;;;18.37;39.31
33781;BME280;20097;50.832;19.100;2023-04-21T11:50:58;98526.31;;;18.66;38.55
33781;BME280;20097;50.832;19.100;2023-04-21T11:56:03;98526.88;;;18.50;37.35
33781;BME280;20097;50.832;19.100;2023-04-21T12:01:08;98521.94;;;18.78;37.31
33781;BME280;20097;50.832;19.100;2023-04-21T12:06:21;98524.13;;;18.81;36.26
33781;BME280;20097;50.832;19.100;2023-04-21T12:11:26;98509.25;;;19.34;38.62
33781;BME280;20097;50.832;19.100;2023-04-21T12:16:30;98510.81;;;19.24;36.56
33781;BME280;20097;50.832;19.100;2023-04-21T12:21:37;98511.19;;;19.09;37.97
33781;BME280;20097;50.832;19.100;2023-04-21T12:26:42;98506.28;;;19.24;38.40
33781;BME280;20097;50.832;19.100;2023-04-21T12:31:46;98491.00;;;19.26;37.92
33781;BME280;20097;50.832;19.100;2023-04-21T12:36:52;98490.59;;;19.11;37.71
33781;BME280;20097;50.832;19.100;2023-04-21T12:41:56;98487.72;;;19.60;36.63
33781;BME280;20097;50.832;19.100;2023-04-21T12:47:00;98480.88;;;20.05;37.85
33781;BME280;20097;50.832;19.100;2023-04-21T12:52:06;98483.09;;;20.55;37.40
33781;BME280;20097;50.832;19.100;2023-04-21T12:57:09;98481.50;;;20.54;36.65
33781;BME280;20097;50.832;19.100;2023-04-21T13:02:14;98481.84;;;20.34;36.05
33781;BME280;20097;50.832;19.100;2023-04-21T13:07:20;98478.50;;;20.38;36.50
33781;BME280;20097;50.832;19.100;2023-04-21T13:12:28;98476.78;;;20.95;35.64
33781;BME280;20097;50.832;19.100;2023-04-21T13:17:32;98466.91;;;21.02;37.16
33781;BME280;20097;50.832;19.100;2023-04-21T13:22:38;98458.66;;;21.60;36.59
33781;BME280;20097;50.832;19.100;2023-04-21T13:27:42;98460.59;;;21.20;35.37
33781;BME280;20097;50.832;19.100;2023-04-21T13:32:48;98455.31;;;21.64;36.63
33781;BME280;20097;50.832;19.100;2023-04-21T13:37:54;98447.84;;;21.50;36.01
33781;BME280;20097;50.832;19.100;2023-04-21T13:42:58;98443.50;;;21.89;36.15
33781;BME280;20097;50.832;19.100;2023-04-21T13:48:02;98436.25;;;20.83;35.93
33781;BME280;20097;50.832;19.100;2023-04-21T13:53:08;98439.06;;;21.05;35.47
33781;BME280;20097;50.832;19.100;2023-04-21T13:58:13;98431.19;;;21.38;34.88
33781;BME280;20097;50.832;19.100;2023-04-21T14:03:19;98430.34;;;21.65;36.15
33781;BME280;20097;50.832;19.100;2023-04-21T14:08:25;98419.22;;;21.07;35.99
33781;BME280;20097;50.832;19.100;2023-04-21T14:13:29;98417.22;;;21.59;34.82
33781;BME280;20097;50.832;19.100;2023-04-21T14:18:44;98411.38;;;21.45;34.84
33781;BME280;20097;50.832;19.100;2023-04-21T14:23:51;98407.69;;;21.02;35.51
33781;BME280;20097;50.832;19.100;2023-04-21T14:28:55;98399.81;;;21.35;35.99
33781;BME280;20097;50.832;19.100;2023-04-21T14:34:01;98397.97;;;21.68;34.97
33781;BME280;20097;50.832;19.100;2023-04-21T14:39:08;98395.66;;;21.11;34.40
33781;BME280;20097;50.832;19.100;2023-04-21T14:44:13;98391.13;;;21.11;35.81
33781;BME280;20097;50.832;19.100;2023-04-21T14:49:18;98376.81;;;20.84;35.52
33781;BME280;20097;50.832;19.100;2023-04-21T14:54:24;98379.81;;;20.88;35.33
33781;BME280;20097;50.832;19.100;2023-04-21T14:59:28;98372.06;;;20.98;35.50
33781;BME280;20097;50.832;19.100;2023-04-21T15:04:33;98366.44;;;20.83;35.74
33781;BME280;20097;50.832;19.100;2023-04-21T15:09:39;98365.34;;;20.95;36.07
33781;BME280;20097;50.832;19.100;2023-04-21T15:14:47;98362.81;;;20.61;34.87
33781;BME280;20097;50.832;19.100;2023-04-21T15:19:52;98357.63;;;20.14;34.94
33781;BME280;20097;50.832;19.100;2023-04-21T15:24:58;98357.22;;;20.46;36.23
33781;BME280;20097;50.832;19.100;2023-04-21T15:30:04;98353.38;;;19.90;36.51
33781;BME280;20097;50.832;19.100;2023-04-21T15:35:08;98343.00;;;18.83;37.15
33781;BME280;20097;50.832;19.100;2023-04-21T15:40:15;98336.97;;;17.93;37.99
33781;BME280;20097;50.832;19.100;2023-04-21T15:45:19;98337.84;;;17.68;39.23
33781;BME280;20097;50.832;19.100;2023-04-21T15:50:24;98331.50;;;17.51;39.15
33781;BME280;20097;50.832;19.100;2023-04-21T15:55:30;98331.09;;;17.23;38.97
33781;BME280;20097;50.832;19.100;2023-04-21T16:00:34;98322.47;;;17.10;39.29
33781;BME280;20097;50.832;19.100;2023-04-21T16:05:40;98319.53;;;16.93;39.15
33781;BME280;20097;50.832;19.100;2023-04-21T16:10:46;98316.97;;;16.80;38.71
33781;BME280;20097;50.832;19.100;2023-04-21T16:15:50;98314.41;;;16.67;38.88
33781;BME280;20097;50.832;19.100;2023-04-21T16:20:55;98312.44;;;16.56;39.01
33781;BME280;20097;50.832;19.100;2023-04-21T16:26:01;98306.41;;;16.49;39.39
33781;BME280;20097;50.832;19.100;2023-04-21T16:31:08;98297.16;;;16.27;40.23
33781;BME280;20097;50.832;19.100;2023-04-21T16:36:13;98292.16;;;16.12;39.75
33781;BME280;20097;50.832;19.100;2023-04-21T16:41:19;98302.53;;;16.01;39.34
33781;BME280;20097;50.832;19.100;2023-04-21T16:46:24;98289.19;;;15.96;40.90
33781;BME280;20097;50.832;19.100;2023-04-21T16:51:28;98289.81;;;15.85;41.20
33781;BME280;20097;50.832;19.100;2023-04-21T16:56:34;98290.47;;;15.74;41.11
33781;BME280;20097;50.832;19.100;2023-04-21T17:01:39;98285.84;;;15.63;41.71
33781;BME280;20097;50.832;19.100;2023-04-21T17:06:44;98285.47;;;15.46;42.55
33781;BME280;20097;50.832;19.100;2023-04-21T17:11:51;98277.53;;;15.33;42.89
33781;BME280;20097;50.832;19.100;2023-04-21T17:16:56;98285.66;;;15.19;41.95
33781;BME280;20097;50.832;19.100;2023-04-21T17:22:01;98285.66;;;15.05;43.10
33781;BME280;20097;50.832;19.100;2023-04-21T17:27:07;98288.47;;;14.91;43.18
33781;BME280;20097;50.832;19.100;2023-04-21T17:32:11;98278.94;;;14.70;45.03
33781;BME280;20097;50.832;19.100;2023-04-21T17:37:16;98271.00;;;14.51;45.98
33781;BME280;20097;50.832;19.100;2023-04-21T17:42:21;98275.19;;;14.26;47.63
33781;BME280;20097;50.832;19.100;2023-04-21T17:47:25;98264.94;;;13.90;49.73
33781;BME280;20097;50.832;19.100;2023-04-21T17:52:29;98253.38;;;13.44;51.81
33781;BME280;20097;50.832;19.100;2023-04-21T17:57:35;98252.47;;;13.03;52.61
33781;BME280;20097;50.832;19.100;2023-04-21T18:02:39;98247.09;;;12.69;54.25
33781;BME280;20097;50.832;19.100;2023-04-21T18:07:43;98242.69;;;12.48;55.77
33781;BME280;20097;50.832;19.100;2023-04-21T18:12:49;98238.44;;;12.26;55.59
33781;BME280;20097;50.832;19.100;2023-04-21T18:17:53;98235.66;;;11.77;56.76
33781;BME280;20097;50.832;19.100;2023-04-21T18:22:58;98234.41;;;11.73;57.77
33781;BME280;20097;50.832;19.100;2023-04-21T18:28:03;98227.59;;;11.35;59.99
33781;BME280;20097;50.832;19.100;2023-04-21T18:33:08;98220.56;;;11.06;61.71
33781;BME280;20097;50.832;19.100;2023-04-21T18:38:13;98223.16;;;10.92;62.94
33781;BME280;20097;50.832;19.100;2023-04-21T18:43:18;98219.63;;;10.85;63.98
33781;BME280;20097;50.832;19.100;2023-04-21T18:48:23;98214.16;;;10.57;66.04
33781;BME280;20097;50.832;19.100;2023-04-21T18:53:27;98221.28;;;10.41;67.74
33781;BME280;20097;50.832;19.100;2023-04-21T18:58:32;98228.91;;;10.28;69.42
33781;BME280;20097;50.832;19.100;2023-04-21T19:03:37;98219.84;;;10.16;70.65
33781;BME280;20097;50.832;19.100;2023-04-21T19:08:41;98221.22;;;9.96;72.55
33781;BME280;20097;50.832;19.100;2023-04-21T19:13:47;98218.66;;;9.88;73.95
33781;BME280;20097;50.832;19.100;2023-04-21T19:18:51;98224.78;;;9.72;75.94
33781;BME280;20097;50.832;19.100;2023-04-21T19:23:55;98222.25;;;9.56;76.56
33781;BME280;20097;50.832;19.100;2023-04-21T19:29:01;98224.72;;;9.41;78.50
33781;BME280;20097;50.832;19.100;2023-04-21T19:34:05;98225.41;;;9.27;80.36
33781;BME280;20097;50.832;19.100;2023-04-21T19:39:10;98230.97;;;9.16;83.65
33781;BME280;20097;50.832;19.100;2023-04-21T19:44:16;98234.59;;;8.99;85.34
33781;BME280;20097;50.832;19.100;2023-04-21T19:49:20;98237.66;;;8.95;86.46
33781;BME280;20097;50.832;19.100;2023-04-21T19:54:24;98231.19;;;8.83;86.08
33781;BME280;20097;50.832;19.100;2023-04-21T19:59:30;98231.19;;;8.83;86.96
33781;BME280;20097;50.832;19.100;2023-04-21T20:04:36;98239.81;;;8.75;87.75
33781;BME280;20097;50.832;19.100;2023-04-21T20:09:40;98242.06;;;8.70;87.97
33781;BME280;20097;50.832;19.100;2023-04-21T20:14:46;98248.59;;;8.74;85.00
33781;BME280;20097;50.832;19.100;2023-04-21T20:19:50;98253.78;;;8.74;85.35
33781;BME280;20097;50.832;19.100;2023-04-21T20:24:54;98254.13;;;8.71;88.19
33781;BME280;20097;50.832;19.100;2023-04-21T20:30:01;98248.44;;;8.60;88.62
33781;BME280;20097;50.832;19.100;2023-04-21T20:35:05;98249.53;;;8.49;92.34
33781;BME280;20097;50.832;19.100;2023-04-21T20:40:10;98247.75;;;8.42;94.44
33781;BME280;20097;50.832;19.100;2023-04-21T20:45:16;98251.97;;;8.43;91.55
33781;BME280;20097;50.832;19.100;2023-04-21T20:50:20;98249.22;;;8.36;93.18
33781;BME280;20097;50.832;19.100;2023-04-21T20:55:25;98254.06;;;8.31;95.52
33781;BME280;20097;50.832;19.100;2023-04-21T21:00:30;98245.66;;;8.45;91.54
33781;BME280;20097;50.832;19.100;2023-04-21T21:05:36;98247.09;;;8.40;92.88
33781;BME280;20097;50.832;19.100;2023-04-21T21:10:41;98243.84;;;8.38;91.26
33781;BME280;20097;50.832;19.100;2023-04-21T21:15:46;98246.31;;;8.39;91.77
33781;BME280;20097;50.832;19.100;2023-04-21T21:20:50;98248.25;;;8.37;91.68
33781;BME280;20097;50.832;19.100;2023-04-21T21:25:55;98248.25;;;8.29;91.12
33781;BME280;20097;50.832;19.100;2023-04-21T21:31:01;98240.44;;;8.29;91.53
33781;BME280;20097;50.832;19.100;2023-04-21T21:36:06;98245.09;;;8.17;95.23
33781;BME280;20097;50.832;19.100;2023-04-21T21:41:10;98244.41;;;8.07;95.67
33781;BME280;20097;50.832;19.100;2023-04-21T21:46:17;98252.38;;;8.06;95.71
33781;BME280;20097;50.832;19.100;2023-04-21T21:51:21;98246.81;;;7.85;97.22
33781;BME280;20097;50.832;19.100;2023-04-21T21:56:25;98249.75;;;7.90;97.90
33781;BME280;20097;50.832;19.100;2023-04-21T22:01:31;98254.56;;;7.77;100.00
33781;BME280;20097;50.832;19.100;2023-04-21T22:06:35;98255.19;;;7.71;100.00
33781;BME280;20097;50.832;19.100;2023-04-21T22:11:40;98257.69;;;7.55;100.00
33781;BME280;20097;50.832;19.100;2023-04-21T22:16:45;98260.06;;;7.40;100.00
33781;BME280;20097;50.832;19.100;2023-04-21T22:21:49;98253.25;;;7.39;100.00
33781;BME280;20097;50.832;19.100;2023-04-21T22:26:53;98251.25;;;7.25;100.00
33781;BME280;20097;50.832;19.100;2023-04-21T22:31:59;98255.06;;;7.13;100.00
33781;BME280;20097;50.832;19.100;2023-04-21T22:37:03;98255.91;;;6.96;100.00
33781;BME280;20097;50.832;19.100;2023-04-21T22:42:07;98257.59;;;6.79;100.00
33781;BME280;20097;50.832;19.100;2023-04-21T22:47:13;98251.03;;;6.50;100.00
33781;BME280;20097;50.832;19.100;2023-04-21T22:52:17;98248.88;;;6.45;100.00
33781;BME280;20097;50.832;19.100;2023-04-21T22:57:21;98249.25;;;6.50;100.00
33781;BME280;20097;50.832;19.100;2023-04-21T23:02:26;98241.16;;;6.53;100.00
33781;BME280;20097;50.832;19.100;2023-04-21T23:07:31;98244.34;;;6.47;100.00
33781;BME280;20097;50.832;19.100;2023-04-21T23:12:36;98244.56;;;6.36;100.00
33781;BME280;20097;50.832;19.100;2023-04-21T23:17:41;98239.97;;;6.30;100.00
33781;BME280;20097;50.832;19.100;2023-04-21T23:22:47;98241.75;;;6.30;100.00
33781;BME280;20097;50.832;19.100;2023-04-21T23:27:53;98236.94;;;6.17;100.00
33781;BME280;20097;50.832;19.100;2023-04-21T23:32:58;98227.81;;;6.13;100.00
33781;BME280;20097;50.832;19.100;2023-04-21T23:38:03;98236.50;;;6.04;100.00
33781;BME280;20097;50.832;19.100;2023-04-21T23:43:07;98231.75;;;6.00;100.00
33781;BME280;20097;50.832;19.100;2023-04-21T23:48:12;98233.13;;;5.94;100.00
33781;BME280;20097;50.832;19.100;2023-04-21T23:53:16;98230.31;;;5.88;100.00
33781;BME280;20097;50.832;19.100;2023-04-21T23:58:20;98227.72;;;5.88;100.00
